Relevés horaires Bierset (Belgique)


Relevés horaires à Bierset - Mercredi 18 Nov. 2020
Heure UTC1 Température [°C] Vent [km/h] Hum. [%] Pres.4 [hPa] Visi. [Km] Nébu. [octa] Préc.5 [mm] Cond.
2m. Res. Ros. Dir.2 Vit. Moy. Raf.3
23:00 13.0 11.6 8.2 SSO 14.8 16.7 24.1 73 1018.1(0.1/3h) 40 8/8 -- --
22:00 13.2 11.7 7.2 SSO 16.7 16.7 24.1 67 1018.4(0.5/3h) 40 8/8 -- --
21:00 12.2 10.5 6.4 SSO 16.7 22.2 29.6 68 1018(-0.2/3h) 40 6/8 -- --
20:00 12.3 10.6 6.2 SSO 16.7 18.5 27.8 66 1018.1(-0.8/3h) 40 3/8 -- --
19:00 13.2 11.7 5.9 S 16.7 16.7 27.8 61 1017.9(-1.3/3h) 40 1/8 -- --
18:00 13.2 12.1 5.4 S 13.0 14.8 24.1 59 1018.2(-1.4/3h) 40 1/8 0/12h
--
17:00 13.6 12.6 5.0 S 13.0 13.0 24.1 56 1018.8(-1.6/3h) 40 1/8 -- --
16:00 14.2 13.5 4.8 S 11.1 14.8 20.4 53 1019.2(-1.9/3h) 40 1/8 -- --
15:00 15.1 14.4 4.8 S 13.0 13.0 20.4 50 1019.5(-2.6/3h) 40 1/8 -- --
14:00 15.5 14.9 5.1 S 13.0 13.0 20.4 50 1020.2(-2.8/3h) 20 1/8 -- --
13:00 14.9 14.6 6.6 S 9.3 13.0 18.5 58 1021(-2.5/3h) 20 1/8 -- --
12:00 14.0 13 6.4 S 13.0 14.8 24.1 60 1022.2(-1.6/3h) 20 1/8 0/6h
--
11:00 12.6 11.3 7.1 S 13.0 14.8 20.4 69 1023.2(-0.8/3h) 20 1/8 -- --
10:00 11.3 9.8 7.0 S 13.0 14.8 24.1 75 1023.8(-0.5/3h) 20 1/8 -- --
09:00 10.0 8.2 6.7 S 13.0 14.8 22.2 80 1024.1(-0.5/3h) 40 1/8 -- --
08:00 9.0 6.7 6.5 S 14.8 14.8 18.5 84 1024.3(-0.8/3h) 40 1/8 -- --
07:00 8.7 6.9 6.7 S 11.1 11.1 18.5 87 1024.6(-1.2/3h) 40 1/8 -- --
06:00 9.0 8 7.1 S 7.4 9.3 16.7 88 1024.7(-1.7/3h) 25 2/8 0/12h
--
05:00 9.5 8.6 7.0 S 7.4 9.3 16.7 84 1025.1(-1.6/3h) 25 6/8 -- --
04:00 10.5 9.3 6.4 S 9.3 9.3 13.0 76 1025.6(-1.3/3h) 25 7/8 -- --
03:00 10.2 9 7.0 SSO 9.3 9.3 16.7 81 1026.3(-0.6/3h) 25 7/8 -- --
02:00 10.3 9.1 7.4 SSO 9.3 9.3 16.7 82 1026.6(-0.6/3h) 20 7/8 -- --
01:00 10.3 9.1 7.6 SSO 9.3 9.3 16.7 83 1026.9(-0.3/3h) 20 6/8 -- --
00:00 10.3 9.1 7.7 SSO 9.3 9.3 16.7 84 1027(-0.4/3h) 20 7/8 0/6h
0/24h
--

1 Coordinated Universal Time. Actuellement il est 02:00 locale et 00:00 UTC.

2 Le vent souffle depuis la direction indiquée vers la direction oposée.

3 Les rafales max. sont disponible 40 min après l'heure du relevé.

4 Pour les stations d'altitude (plus de 600m) le géopotentiel du niveau le plus proche de la pression obligatoire est indiqué.

5 Les stations disposant d'un diffuseur peuvent indiquer "trace". Cela signifie que des précipitations ont touchés le sol mais que la quantité est inférieure à 0.1 mm.

Récapitulatif de la journée
Température [°C] Vent [km/h] Ensoleillement4 [h] Precipitations totale5 [mm] Pression [Hpa]
Min1 Max.2 Moy.3 Max. Min Max.
8.8 15.5 13.4 29.6 0 h 0 min 0 1017.9 1027.0

1 Température minimale relevée entre 18:00 UTC la veille et 18:00 UTC le jour donné.

2 Température maximale relevée entre 06:00 UTC le jour donné et 06:00 UTC le lendemain.

3 Vent moyen de la journée basé sur les relevés horaires.

4 Ensoleillement en heures relevé entre 06:00 UTC la veille et 06:00 UTC le jour donné.

5 Précipitations totales tombées entre 06:00 UTC la jour donné et 06:00 UTC le lendemain.

Graphiques horaires